sensor_id;sensor_type;location;lat;lon;timestamp;temperature;humidity
71175;DHT22;58876;51.994;4.472;2023-03-01T00:01:15;3.01;76.09
71175;DHT22;58876;51.994;4.472;2023-03-01T00:03:41;2.95;76.38
71175;DHT22;58876;51.994;4.472;2023-03-01T00:06:07;2.99;76.38
71175;DHT22;58876;51.994;4.472;2023-03-01T00:08:33;2.97;76.34
71175;DHT22;58876;51.994;4.472;2023-03-01T00:11:07;2.95;76.19
71175;DHT22;58876;51.994;4.472;2023-03-01T00:13:34;3.00;76.54
71175;DHT22;58876;51.994;4.472;2023-03-01T00:16:05;2.99;76.56
71175;DHT22;58876;51.994;4.472;2023-03-01T00:18:31;2.96;76.49
71175;DHT22;58876;51.994;4.472;2023-03-01T00:20:56;2.96;76.74
71175;DHT22;58876;51.994;4.472;2023-03-01T00:23:23;2.92;77.39
71175;DHT22;58876;51.994;4.472;2023-03-01T00:25:49;2.95;77.22
71175;DHT22;58876;51.994;4.472;2023-03-01T00:28:14;2.95;76.99
71175;DHT22;58876;51.994;4.472;2023-03-01T00:30:40;2.92;77.35
71175;DHT22;58876;51.994;4.472;2023-03-01T00:33:06;2.90;77.16
71175;DHT22;58876;51.994;4.472;2023-03-01T00:35:34;2.83;76.93
71175;DHT22;58876;51.994;4.472;2023-03-01T00:37:59;2.85;76.64
71175;DHT22;58876;51.994;4.472;2023-03-01T00:40:26;2.83;76.62
71175;DHT22;58876;51.994;4.472;2023-03-01T00:42:52;2.79;77.14
71175;DHT22;58876;51.994;4.472;2023-03-01T00:45:17;2.75;77.05
71175;DHT22;58876;51.994;4.472;2023-03-01T00:47:43;2.73;76.89
71175;DHT22;58876;51.994;4.472;2023-03-01T00:50:10;2.69;76.92
71175;DHT22;58876;51.994;4.472;2023-03-01T00:52:36;2.60;76.82
71175;DHT22;58876;51.994;4.472;2023-03-01T00:55:01;2.55;76.78
71175;DHT22;58876;51.994;4.472;2023-03-01T00:57:27;2.53;76.86
71175;DHT22;58876;51.994;4.472;2023-03-01T00:59:52;2.52;76.78
71175;DHT22;58876;51.994;4.472;2023-03-01T01:02:19;2.52;77.16
71175;DHT22;58876;51.994;4.472;2023-03-01T01:04:45;2.53;77.35
71175;DHT22;58876;51.994;4.472;2023-03-01T01:07:10;2.52;76.99
71175;DHT22;58876;51.994;4.472;2023-03-01T01:09:36;2.55;77.44
71175;DHT22;58876;51.994;4.472;2023-03-01T01:12:02;2.50;77.43
71175;DHT22;58876;51.994;4.472;2023-03-01T01:14:28;2.50;77.54
71175;DHT22;58876;51.994;4.472;2023-03-01T01:16:54;2.52;77.82
71175;DHT22;58876;51.994;4.472;2023-03-01T01:19:19;2.53;77.98
71175;DHT22;58876;51.994;4.472;2023-03-01T01:21:45;2.46;77.52
71175;DHT22;58876;51.994;4.472;2023-03-01T01:24:11;2.46;77.51
71175;DHT22;58876;51.994;4.472;2023-03-01T01:26:37;2.32;77.31
71175;DHT22;58876;51.994;4.472;2023-03-01T01:29:04;2.21;77.47
71175;DHT22;58876;51.994;4.472;2023-03-01T01:31:32;2.22;77.88
71175;DHT22;58876;51.994;4.472;2023-03-01T01:34:00;2.22;77.90
71175;DHT22;58876;51.994;4.472;2023-03-01T01:36:26;2.14;77.63
71175;DHT22;58876;51.994;4.472;2023-03-01T01:38:52;2.14;77.76
71175;DHT22;58876;51.994;4.472;2023-03-01T01:41:18;2.22;78.72
71175;DHT22;58876;51.994;4.472;2023-03-01T01:43:47;2.18;78.59
71175;DHT22;58876;51.994;4.472;2023-03-01T01:46:26;2.17;79.12
71175;DHT22;58876;51.994;4.472;2023-03-01T01:49:00;2.28;79.38
71175;DHT22;58876;51.994;4.472;2023-03-01T01:51:37;2.25;79.25
71175;DHT22;58876;51.994;4.472;2023-03-01T01:54:10;2.28;79.01
71175;DHT22;58876;51.994;4.472;2023-03-01T01:56:38;2.21;78.94
71175;DHT22;58876;51.994;4.472;2023-03-01T01:59:05;2.18;79.09
71175;DHT22;58876;51.994;4.472;2023-03-01T02:01:30;2.18;79.35
71175;DHT22;58876;51.994;4.472;2023-03-01T02:03:56;2.17;79.38
71175;DHT22;58876;51.994;4.472;2023-03-01T02:06:37;2.21;79.58
71175;DHT22;58876;51.994;4.472;2023-03-01T02:09:14;2.22;80.00
71175;DHT22;58876;51.994;4.472;2023-03-01T02:11:42;2.18;80.19
71175;DHT22;58876;51.994;4.472;2023-03-01T02:14:08;2.10;80.41
71175;DHT22;58876;51.994;4.472;2023-03-01T02:16:34;2.14;80.30
71175;DHT22;58876;51.994;4.472;2023-03-01T02:19:00;2.13;80.46
71175;DHT22;58876;51.994;4.472;2023-03-01T02:26:51;1.91;79.41
71175;DHT22;58876;51.994;4.472;2023-03-01T02:29:18;1.88;79.44
71175;DHT22;58876;51.994;4.472;2023-03-01T02:31:44;1.83;79.47
71175;DHT22;58876;51.994;4.472;2023-03-01T02:34:20;1.80;79.58
71175;DHT22;58876;51.994;4.472;2023-03-01T02:36:51;1.83;79.86
71175;DHT22;58876;51.994;4.472;2023-03-01T02:39:22;1.81;79.71
71175;DHT22;58876;51.994;4.472;2023-03-01T02:41:52;1.81;79.70
71175;DHT22;58876;51.994;4.472;2023-03-01T02:44:19;1.80;79.93
71175;DHT22;58876;51.994;4.472;2023-03-01T02:46:48;1.77;79.70
71175;DHT22;58876;51.994;4.472;2023-03-01T02:49:28;1.79;79.44
71175;DHT22;58876;51.994;4.472;2023-03-01T02:52:12;1.74;79.70
71175;DHT22;58876;51.994;4.472;2023-03-01T02:57:23;1.79;80.79
71175;DHT22;58876;51.994;4.472;2023-03-01T02:59:51;1.84;80.96
71175;DHT22;58876;51.994;4.472;2023-03-01T03:02:20;1.84;80.65
71175;DHT22;58876;51.994;4.472;2023-03-01T03:05:09;1.86;80.33
71175;DHT22;58876;51.994;4.472;2023-03-01T03:07:37;1.81;80.52
71175;DHT22;58876;51.994;4.472;2023-03-01T03:10:06;1.81;80.35
71175;DHT22;58876;51.994;4.472;2023-03-01T03:12:32;1.79;80.78
71175;DHT22;58876;51.994;4.472;2023-03-01T03:14:57;1.73;80.56
71175;DHT22;58876;51.994;4.472;2023-03-01T03:17:23;1.73;80.42
71175;DHT22;58876;51.994;4.472;2023-03-01T03:19:48;1.66;80.36
71175;DHT22;58876;51.994;4.472;2023-03-01T03:22:14;1.74;80.44
71175;DHT22;58876;51.994;4.472;2023-03-01T03:24:40;1.69;80.13
71175;DHT22;58876;51.994;4.472;2023-03-01T03:27:07;1.62;80.32
71175;DHT22;58876;51.994;4.472;2023-03-01T03:29:33;1.57;80.18
71175;DHT22;58876;51.994;4.472;2023-03-01T03:31:59;1.57;80.41
71175;DHT22;58876;51.994;4.472;2023-03-01T03:34:24;1.49;80.36
71175;DHT22;58876;51.994;4.472;2023-03-01T03:36:54;1.43;80.03
71175;DHT22;58876;51.994;4.472;2023-03-01T03:39:26;1.39;79.86
71175;DHT22;58876;51.994;4.472;2023-03-01T03:42:00;1.39;80.25
71175;DHT22;58876;51.994;4.472;2023-03-01T03:44:25;1.43;80.59
71175;DHT22;58876;51.994;4.472;2023-03-01T03:46:51;1.50;81.31
71175;DHT22;58876;51.994;4.472;2023-03-01T03:49:16;1.46;81.05
71175;DHT22;58876;51.994;4.472;2023-03-01T03:51:42;1.50;80.68
71175;DHT22;58876;51.994;4.472;2023-03-01T03:54:07;1.42;80.44
71175;DHT22;58876;51.994;4.472;2023-03-01T03:56:33;1.36;80.29
71175;DHT22;58876;51.994;4.472;2023-03-01T03:58:58;1.32;80.16
71175;DHT22;58876;51.994;4.472;2023-03-01T04:01:23;1.25;80.26
71175;DHT22;58876;51.994;4.472;2023-03-01T04:03:49;1.34;80.54
71175;DHT22;58876;51.994;4.472;2023-03-01T04:06:19;1.32;80.70
71175;DHT22;58876;51.994;4.472;2023-03-01T04:08:45;1.32;80.78
71175;DHT22;58876;51.994;4.472;2023-03-01T04:11:11;1.40;81.05
71175;DHT22;58876;51.994;4.472;2023-03-01T04:13:54;1.38;80.77
71175;DHT22;58876;51.994;4.472;2023-03-01T04:16:20;1.40;80.82
71175;DHT22;58876;51.994;4.472;2023-03-01T04:18:46;1.39;80.76
71175;DHT22;58876;51.994;4.472;2023-03-01T04:21:12;1.42;80.75
71175;DHT22;58876;51.994;4.472;2023-03-01T04:23:38;1.43;80.79
71175;DHT22;58876;51.994;4.472;2023-03-01T04:26:06;1.34;80.73
71175;DHT22;58876;51.994;4.472;2023-03-01T04:28:40;1.27;80.67
71175;DHT22;58876;51.994;4.472;2023-03-01T04:31:12;1.24;80.61
71175;DHT22;58876;51.994;4.472;2023-03-01T04:33:40;1.28;80.63
71175;DHT22;58876;51.994;4.472;2023-03-01T04:36:07;1.24;80.74
71175;DHT22;58876;51.994;4.472;2023-03-01T04:38:34;1.27;80.84
71175;DHT22;58876;51.994;4.472;2023-03-01T04:41:01;1.32;80.86
71175;DHT22;58876;51.994;4.472;2023-03-01T04:43:28;1.34;81.00
71175;DHT22;58876;51.994;4.472;2023-03-01T04:45:54;1.35;81.21
71175;DHT22;58876;51.994;4.472;2023-03-01T04:48:19;1.39;81.16
71175;DHT22;58876;51.994;4.472;2023-03-01T04:50:45;1.43;81.00
71175;DHT22;58876;51.994;4.472;2023-03-01T04:53:10;1.40;80.85
71175;DHT22;58876;51.994;4.472;2023-03-01T04:55:36;1.35;81.05
71175;DHT22;58876;51.994;4.472;2023-03-01T04:58:01;1.28;81.52
71175;DHT22;58876;51.994;4.472;2023-03-01T05:00:27;1.21;81.86
71175;DHT22;58876;51.994;4.472;2023-03-01T05:02:55;1.19;81.82
71175;DHT22;58876;51.994;4.472;2023-03-01T05:05:24;1.15;82.01
71175;DHT22;58876;51.994;4.472;2023-03-01T05:07:59;1.08;82.15
71175;DHT22;58876;51.994;4.472;2023-03-01T05:10:27;1.15;82.10
71175;DHT22;58876;51.994;4.472;2023-03-01T05:12:55;1.18;81.82
71175;DHT22;58876;51.994;4.472;2023-03-01T05:15:23;1.25;81.73
71175;DHT22;58876;51.994;4.472;2023-03-01T05:17:52;1.18;81.68
71175;DHT22;58876;51.994;4.472;2023-03-01T05:20:19;1.09;81.63
71175;DHT22;58876;51.994;4.472;2023-03-01T05:22:49;1.09;81.50
71175;DHT22;58876;51.994;4.472;2023-03-01T05:25:15;1.11;81.36
71175;DHT22;58876;51.994;4.472;2023-03-01T05:27:41;1.05;81.36
71175;DHT22;58876;51.994;4.472;2023-03-01T05:30:07;1.07;81.39
71175;DHT22;58876;51.994;4.472;2023-03-01T05:32:47;1.01;81.22
71175;DHT22;58876;51.994;4.472;2023-03-01T05:35:14;0.95;81.23
71175;DHT22;58876;51.994;4.472;2023-03-01T05:37:46;0.88;81.64
71175;DHT22;58876;51.994;4.472;2023-03-01T05:40:14;0.92;81.42
71175;DHT22;58876;51.994;4.472;2023-03-01T05:42:45;0.91;81.50
71175;DHT22;58876;51.994;4.472;2023-03-01T05:45:12;0.88;81.25
71175;DHT22;58876;51.994;4.472;2023-03-01T05:47:42;0.84;81.41
71175;DHT22;58876;51.994;4.472;2023-03-01T05:50:29;0.64;81.89
71175;DHT22;58876;51.994;4.472;2023-03-01T05:53:05;0.53;82.06
71175;DHT22;58876;51.994;4.472;2023-03-01T05:55:31;0.54;82.31
71175;DHT22;58876;51.994;4.472;2023-03-01T05:57:59;0.52;82.32
71175;DHT22;58876;51.994;4.472;2023-03-01T06:00:25;0.53;82.36
71175;DHT22;58876;51.994;4.472;2023-03-01T06:02:53;0.56;82.64
71175;DHT22;58876;51.994;4.472;2023-03-01T06:05:19;0.54;82.57
71175;DHT22;58876;51.994;4.472;2023-03-01T06:07:46;0.57;82.62
71175;DHT22;58876;51.994;4.472;2023-03-01T06:10:13;0.50;82.17
71175;DHT22;58876;51.994;4.472;2023-03-01T06:12:40;0.40;82.22
71175;DHT22;58876;51.994;4.472;2023-03-01T06:15:07;0.39;82.26
71175;DHT22;58876;51.994;4.472;2023-03-01T06:17:36;0.47;82.27
71175;DHT22;58876;51.994;4.472;2023-03-01T06:20:15;0.46;82.23
71175;DHT22;58876;51.994;4.472;2023-03-01T06:22:42;0.42;82.06
71175;DHT22;58876;51.994;4.472;2023-03-01T06:25:08;0.45;81.93
71175;DHT22;58876;51.994;4.472;2023-03-01T06:27:34;0.47;81.89
71175;DHT22;58876;51.994;4.472;2023-03-01T06:30:00;0.49;82.19
71175;DHT22;58876;51.994;4.472;2023-03-01T06:32:26;0.56;81.99
71175;DHT22;58876;51.994;4.472;2023-03-01T06:34:52;0.43;82.13
71175;DHT22;58876;51.994;4.472;2023-03-01T06:37:17;0.33;82.22
71175;DHT22;58876;51.994;4.472;2023-03-01T06:39:43;0.39;82.41
71175;DHT22;58876;51.994;4.472;2023-03-01T06:42:09;0.46;82.40
71175;DHT22;58876;51.994;4.472;2023-03-01T06:44:37;0.52;82.20
71175;DHT22;58876;51.994;4.472;2023-03-01T06:47:04;0.56;82.08
71175;DHT22;58876;51.994;4.472;2023-03-01T06:49:29;0.63;81.99
71175;DHT22;58876;51.994;4.472;2023-03-01T06:51:56;1.42;80.62
71175;DHT22;58876;51.994;4.472;2023-03-01T06:54:21;1.77;78.96
71175;DHT22;58876;51.994;4.472;2023-03-01T06:56:48;1.83;78.12
71175;DHT22;58876;51.994;4.472;2023-03-01T06:59:14;2.10;77.32
71175;DHT22;58876;51.994;4.472;2023-03-01T07:01:40;2.69;75.71
71175;DHT22;58876;51.994;4.472;2023-03-01T07:04:05;2.92;74.94
71175;DHT22;58876;51.994;4.472;2023-03-01T07:06:31;2.52;74.79
71175;DHT22;58876;51.994;4.472;2023-03-01T07:08:56;2.10;75.51
71175;DHT22;58876;51.994;4.472;2023-03-01T07:11:22;1.81;76.64
71175;DHT22;58876;51.994;4.472;2023-03-01T07:13:47;1.91;76.40
71175;DHT22;58876;51.994;4.472;2023-03-01T07:16:13;1.94;76.01
71175;DHT22;58876;51.994;4.472;2023-03-01T07:18:39;2.17;75.59
71175;DHT22;58876;51.994;4.472;2023-03-01T07:21:09;2.34;74.97
71175;DHT22;58876;51.994;4.472;2023-03-01T07:23:37;2.25;75.01
71175;DHT22;58876;51.994;4.472;2023-03-01T07:26:02;2.15;75.22
71175;DHT22;58876;51.994;4.472;2023-03-01T07:28:28;2.73;74.55
71175;DHT22;58876;51.994;4.472;2023-03-01T07:30:54;2.92;74.01
71175;DHT22;58876;51.994;4.472;2023-03-01T07:33:19;2.95;73.90
71175;DHT22;58876;51.994;4.472;2023-03-01T07:35:45;2.68;74.19
71175;DHT22;58876;51.994;4.472;2023-03-01T07:38:10;2.45;74.93
71175;DHT22;58876;51.994;4.472;2023-03-01T07:40:36;2.49;75.34
71175;DHT22;58876;51.994;4.472;2023-03-01T07:43:01;2.69;75.05
71175;DHT22;58876;51.994;4.472;2023-03-01T07:45:28;2.89;75.10
71175;DHT22;58876;51.994;4.472;2023-03-01T07:47:54;3.01;74.68
71175;DHT22;58876;51.994;4.472;2023-03-01T07:50:21;3.06;74.91
71175;DHT22;58876;51.994;4.472;2023-03-01T07:52:48;4.50;72.38
71175;DHT22;58876;51.994;4.472;2023-03-01T07:55:14;5.73;68.75
71175;DHT22;58876;51.994;4.472;2023-03-01T07:57:40;6.73;65.64
71175;DHT22;58876;51.994;4.472;2023-03-01T08:00:07;7.38;63.18
71175;DHT22;58876;51.994;4.472;2023-03-01T08:02:33;7.83;61.51
71175;DHT22;58876;51.994;4.472;2023-03-01T08:04:58;8.10;59.95
71175;DHT22;58876;51.994;4.472;2023-03-01T08:07:23;8.21;59.36
71175;DHT22;58876;51.994;4.472;2023-03-01T08:09:49;8.30;58.71
71175;DHT22;58876;51.994;4.472;2023-03-01T08:12:14;8.23;58.89
71175;DHT22;58876;51.994;4.472;2023-03-01T08:14:42;8.00;59.20
71175;DHT22;58876;51.994;4.472;2023-03-01T08:17:08;7.69;60.13
71175;DHT22;58876;51.994;4.472;2023-03-01T08:19:33;7.29;61.44
71175;DHT22;58876;51.994;4.472;2023-03-01T08:22:01;7.19;62.11
71175;DHT22;58876;51.994;4.472;2023-03-01T08:24:26;6.95;63.29
71175;DHT22;58876;51.994;4.472;2023-03-01T08:26:53;6.73;63.59
71175;DHT22;58876;51.994;4.472;2023-03-01T08:29:18;6.43;65.10
71175;DHT22;58876;51.994;4.472;2023-03-01T08:31:43;6.24;65.25
71175;DHT22;58876;51.994;4.472;2023-03-01T08:34:12;5.91;66.31
71175;DHT22;58876;51.994;4.472;2023-03-01T08:36:41;5.67;66.91
71175;DHT22;58876;51.994;4.472;2023-03-01T08:39:10;5.44;67.88
71175;DHT22;58876;51.994;4.472;2023-03-01T08:41:36;5.42;68.91
71175;DHT22;58876;51.994;4.472;2023-03-01T08:44:02;5.48;68.69
71175;DHT22;58876;51.994;4.472;2023-03-01T08:46:36;5.37;67.67
71175;DHT22;58876;51.994;4.472;2023-03-01T08:49:11;5.39;69.01
71175;DHT22;58876;51.994;4.472;2023-03-01T08:51:38;5.53;68.65
71175;DHT22;58876;51.994;4.472;2023-03-01T08:54:04;5.61;67.49
71175;DHT22;58876;51.994;4.472;2023-03-01T08:56:30;5.74;67.22
71175;DHT22;58876;51.994;4.472;2023-03-01T08:58:56;5.70;65.34
71175;DHT22;58876;51.994;4.472;2023-03-01T09:01:21;5.73;64.96
71175;DHT22;58876;51.994;4.472;2023-03-01T09:03:47;5.74;64.86
71175;DHT22;58876;51.994;4.472;2023-03-01T09:06:13;5.81;65.11
71175;DHT22;58876;51.994;4.472;2023-03-01T09:08:45;5.98;64.51
71175;DHT22;58876;51.994;4.472;2023-03-01T09:11:14;6.08;63.49
71175;DHT22;58876;51.994;4.472;2023-03-01T09:13:41;6.30;62.66
71175;DHT22;58876;51.994;4.472;2023-03-01T09:16:07;6.47;62.56
71175;DHT22;58876;51.994;4.472;2023-03-01T09:18:34;6.52;61.83
71175;DHT22;58876;51.994;4.472;2023-03-01T09:21:05;6.58;60.61
71175;DHT22;58876;51.994;4.472;2023-03-01T09:23:34;6.70;60.76
71175;DHT22;58876;51.994;4.472;2023-03-01T09:25:59;6.72;60.05
71175;DHT22;58876;51.994;4.472;2023-03-01T09:28:25;6.69;59.20
71175;DHT22;58876;51.994;4.472;2023-03-01T09:30:51;6.64;59.15
71175;DHT22;58876;51.994;4.472;2023-03-01T09:33:16;6.70;59.83
71175;DHT22;58876;51.994;4.472;2023-03-01T09:35:41;6.81;60.05
71175;DHT22;58876;51.994;4.472;2023-03-01T09:38:12;7.00;59.67
71175;DHT22;58876;51.994;4.472;2023-03-01T09:40:42;7.03;58.44
71175;DHT22;58876;51.994;4.472;2023-03-01T09:43:23;7.08;59.38
71175;DHT22;58876;51.994;4.472;2023-03-01T09:45:54;7.12;59.52
71175;DHT22;58876;51.994;4.472;2023-03-01T09:48:24;7.38;58.68
71175;DHT22;58876;51.994;4.472;2023-03-01T09:50:51;7.45;57.57
71175;DHT22;58876;51.994;4.472;2023-03-01T09:53:23;7.49;58.39
71175;DHT22;58876;51.994;4.472;2023-03-01T09:58:41;7.65;55.72
71175;DHT22;58876;51.994;4.472;2023-03-01T10:01:29;7.67;55.39
71175;DHT22;58876;51.994;4.472;2023-03-01T10:04:27;7.62;54.23
71175;DHT22;58876;51.994;4.472;2023-03-01T10:09:45;7.82;54.29
71175;DHT22;58876;51.994;4.472;2023-03-01T10:12:15;7.91;54.58
71175;DHT22;58876;51.994;4.472;2023-03-01T10:15:43;8.00;53.16
71175;DHT22;58876;51.994;4.472;2023-03-01T10:18:09;8.04;51.98
71175;DHT22;58876;51.994;4.472;2023-03-01T10:20:50;8.00;51.21
71175;DHT22;58876;51.994;4.472;2023-03-01T10:23:17;7.98;51.99
71175;DHT22;58876;51.994;4.472;2023-03-01T10:25:57;7.97;51.51
71175;DHT22;58876;51.994;4.472;2023-03-01T10:28:50;8.10;51.91
71175;DHT22;58876;51.994;4.472;2023-03-01T10:31:24;8.17;50.98
71175;DHT22;58876;51.994;4.472;2023-03-01T10:33:53;8.23;50.25
71175;DHT22;58876;51.994;4.472;2023-03-01T10:36:21;8.30;50.17
71175;DHT22;58876;51.994;4.472;2023-03-01T10:38:57;8.45;49.13
71175;DHT22;58876;51.994;4.472;2023-03-01T10:41:25;8.35;48.90
71175;DHT22;58876;51.994;4.472;2023-03-01T10:43:57;8.25;48.97
71175;DHT22;58876;51.994;4.472;2023-03-01T10:51:45;8.62;50.15
71175;DHT22;58876;51.994;4.472;2023-03-01T10:54:32;8.56;49.22
71175;DHT22;58876;51.994;4.472;2023-03-01T10:57:03;8.44;49.26
71175;DHT22;58876;51.994;4.472;2023-03-01T10:59:30;8.59;50.36
71175;DHT22;58876;51.994;4.472;2023-03-01T11:02:22;8.68;50.27
71175;DHT22;58876;51.994;4.472;2023-03-01T11:04:59;8.97;50.87
71175;DHT22;58876;51.994;4.472;2023-03-01T11:07:25;9.27;50.47
71175;DHT22;58876;51.994;4.472;2023-03-01T11:09:50;9.27;49.15
71175;DHT22;58876;51.994;4.472;2023-03-01T11:12:16;9.34;50.09
71175;DHT22;58876;51.994;4.472;2023-03-01T11:14:51;9.33;48.62
71175;DHT22;58876;51.994;4.472;2023-03-01T11:17:21;9.45;50.04
71175;DHT22;58876;51.994;4.472;2023-03-01T11:20:20;9.52;47.71
71175;DHT22;58876;51.994;4.472;2023-03-01T11:23:01;9.58;48.48
71175;DHT22;58876;51.994;4.472;2023-03-01T11:25:33;9.65;48.92
71175;DHT22;58876;51.994;4.472;2023-03-01T11:28:04;9.59;47.01
71175;DHT22;58876;51.994;4.472;2023-03-01T11:30:38;9.67;48.94
71175;DHT22;58876;51.994;4.472;2023-03-01T11:35:37;9.64;47.67
71175;DHT22;58876;51.994;4.472;2023-03-01T11:38:26;9.50;47.56
71175;DHT22;58876;51.994;4.472;2023-03-01T11:44:00;9.54;47.20
71175;DHT22;58876;51.994;4.472;2023-03-01T11:47:06;9.55;46.84
71175;DHT22;58876;51.994;4.472;2023-03-01T11:52:38;9.98;48.64
71175;DHT22;58876;51.994;4.472;2023-03-01T11:55:46;10.19;46.66
71175;DHT22;58876;51.994;4.472;2023-03-01T12:04:23;10.19;46.51
71175;DHT22;58876;51.994;4.472;2023-03-01T12:09:57;10.49;48.13
71175;DHT22;58876;51.994;4.472;2023-03-01T12:12:32;10.74;47.23
71175;DHT22;58876;51.994;4.472;2023-03-01T12:15:15;10.29;47.82
71175;DHT22;58876;51.994;4.472;2023-03-01T12:20:49;10.84;47.16
71175;DHT22;58876;51.994;4.472;2023-03-01T12:26:32;10.90;49.27
71175;DHT22;58876;51.994;4.472;2023-03-01T12:31:50;10.92;47.87
71175;DHT22;58876;51.994;4.472;2023-03-01T12:43:08;11.21;45.64
71175;DHT22;58876;51.994;4.472;2023-03-01T12:51:14;10.85;44.66
71175;DHT22;58876;51.994;4.472;2023-03-01T12:53:45;10.77;46.56
71175;DHT22;58876;51.994;4.472;2023-03-01T12:56:36;10.94;46.21
71175;DHT22;58876;51.994;4.472;2023-03-01T12:59:34;10.77;46.06
71175;DHT22;58876;51.994;4.472;2023-03-01T13:02:23;11.05;44.42
71175;DHT22;58876;51.994;4.472;2023-03-01T13:07:58;10.84;45.67
71175;DHT22;58876;51.994;4.472;2023-03-01T13:11:03;10.77;46.67
71175;DHT22;58876;51.994;4.472;2023-03-01T13:13:30;11.14;46.20
71175;DHT22;58876;51.994;4.472;2023-03-01T13:15:56;11.25;45.02
71175;DHT22;58876;51.994;4.472;2023-03-01T13:20:54;11.07;43.30
71175;DHT22;58876;51.994;4.472;2023-03-01T13:34:03;10.97;44.94
71175;DHT22;58876;51.994;4.472;2023-03-01T13:41:51;11.76;41.79
71175;DHT22;58876;51.994;4.472;2023-03-01T13:44:36;11.76;43.87
71175;DHT22;58876;51.994;4.472;2023-03-01T13:47:16;12.04;41.79
71175;DHT22;58876;51.994;4.472;2023-03-01T13:49:53;11.81;40.53
71175;DHT22;58876;51.994;4.472;2023-03-01T13:52:28;11.56;41.16
71175;DHT22;58876;51.994;4.472;2023-03-01T13:54:56;12.04;43.08
71175;DHT22;58876;51.994;4.472;2023-03-01T13:57:30;12.42;41.23
71175;DHT22;58876;51.994;4.472;2023-03-01T13:59:57;12.86;39.75
71175;DHT22;58876;51.994;4.472;2023-03-01T14:02:23;13.26;40.20
71175;DHT22;58876;51.994;4.472;2023-03-01T14:04:59;13.37;37.51
71175;DHT22;58876;51.994;4.472;2023-03-01T14:07:27;13.13;40.46
71175;DHT22;58876;51.994;4.472;2023-03-01T14:10:03;13.06;40.52
71175;DHT22;58876;51.994;4.472;2023-03-01T14:15:29;12.02;41.34
71175;DHT22;58876;51.994;4.472;2023-03-01T14:18:21;11.84;41.31
71175;DHT22;58876;51.994;4.472;2023-03-01T14:20:48;11.56;39.21
71175;DHT22;58876;51.994;4.472;2023-03-01T14:23:22;11.52;40.18
71175;DHT22;58876;51.994;4.472;2023-03-01T14:25:53;11.86;38.33
71175;DHT22;58876;51.994;4.472;2023-03-01T14:28:26;12.29;38.95
71175;DHT22;58876;51.994;4.472;2023-03-01T14:30:54;12.50;38.10
71175;DHT22;58876;51.994;4.472;2023-03-01T14:33:24;12.65;39.34
71175;DHT22;58876;51.994;4.472;2023-03-01T14:35:57;12.28;38.79
71175;DHT22;58876;51.994;4.472;2023-03-01T14:41:07;11.53;40.60
71175;DHT22;58876;51.994;4.472;2023-03-01T14:43:36;11.36;41.52
71175;DHT22;58876;51.994;4.472;2023-03-01T14:46:02;11.50;41.95
71175;DHT22;58876;51.994;4.472;2023-03-01T14:48:30;11.38;40.94
71175;DHT22;58876;51.994;4.472;2023-03-01T14:50:56;11.36;42.49
71175;DHT22;58876;51.994;4.472;2023-03-01T14:53:28;11.35;41.58
71175;DHT22;58876;51.994;4.472;2023-03-01T14:55:59;11.14;42.28
71175;DHT22;58876;51.994;4.472;2023-03-01T14:58:28;11.16;43.45
71175;DHT22;58876;51.994;4.472;2023-03-01T15:00:59;11.25;42.03
71175;DHT22;58876;51.994;4.472;2023-03-01T15:03:42;11.43;42.24
71175;DHT22;58876;51.994;4.472;2023-03-01T15:06:10;11.35;43.52
71175;DHT22;58876;51.994;4.472;2023-03-01T15:08:44;11.07;43.64
71175;DHT22;58876;51.994;4.472;2023-03-01T15:11:32;10.98;43.65
71175;DHT22;58876;51.994;4.472;2023-03-01T15:13:59;11.04;44.31
71175;DHT22;58876;51.994;4.472;2023-03-01T15:16:30;10.97;45.14
71175;DHT22;58876;51.994;4.472;2023-03-01T15:19:01;10.91;44.18
71175;DHT22;58876;51.994;4.472;2023-03-01T15:21:36;10.85;43.19
71175;DHT22;58876;51.994;4.472;2023-03-01T15:26:41;10.51;41.87
71175;DHT22;58876;51.994;4.472;2023-03-01T15:29:18;10.56;42.66
71175;DHT22;58876;51.994;4.472;2023-03-01T15:31:56;10.71;43.78
71175;DHT22;58876;51.994;4.472;2023-03-01T15:34:28;10.68;42.66
71175;DHT22;58876;51.994;4.472;2023-03-01T15:36:56;10.64;42.59
71175;DHT22;58876;51.994;4.472;2023-03-01T15:39:38;10.47;43.10
71175;DHT22;58876;51.994;4.472;2023-03-01T15:44:33;10.32;42.65
71175;DHT22;58876;51.994;4.472;2023-03-01T15:46:59;10.30;44.43
71175;DHT22;58876;51.994;4.472;2023-03-01T15:49:38;10.46;45.61
71175;DHT22;58876;51.994;4.472;2023-03-01T15:52:09;10.51;45.66
71175;DHT22;58876;51.994;4.472;2023-03-01T15:54:39;10.29;45.38
71175;DHT22;58876;51.994;4.472;2023-03-01T15:57:12;10.12;46.12
71175;DHT22;58876;51.994;4.472;2023-03-01T15:59:38;10.08;45.52
71175;DHT22;58876;51.994;4.472;2023-03-01T16:02:09;9.86;45.91
71175;DHT22;58876;51.994;4.472;2023-03-01T16:04:35;9.85;47.19
71175;DHT22;58876;51.994;4.472;2023-03-01T16:07:00;9.88;46.99
71175;DHT22;58876;51.994;4.472;2023-03-01T16:09:26;9.64;46.74
71175;DHT22;58876;51.994;4.472;2023-03-01T16:11:53;9.70;46.73
71175;DHT22;58876;51.994;4.472;2023-03-01T16:14:19;9.67;47.14
71175;DHT22;58876;51.994;4.472;2023-03-01T16:16:46;9.75;46.82
71175;DHT22;58876;51.994;4.472;2023-03-01T16:19:13;9.65;47.95
71175;DHT22;58876;51.994;4.472;2023-03-01T16:21:38;9.71;47.37
71175;DHT22;58876;51.994;4.472;2023-03-01T16:24:04;9.61;47.98
71175;DHT22;58876;51.994;4.472;2023-03-01T16:26:30;9.62;46.93
71175;DHT22;58876;51.994;4.472;2023-03-01T16:28:59;9.45;47.50
71175;DHT22;58876;51.994;4.472;2023-03-01T16:31:25;9.47;47.60
71175;DHT22;58876;51.994;4.472;2023-03-01T16:33:58;9.30;48.19
71175;DHT22;58876;51.994;4.472;2023-03-01T16:36:25;9.12;48.11
71175;DHT22;58876;51.994;4.472;2023-03-01T16:38:54;9.12;48.58
71175;DHT22;58876;51.994;4.472;2023-03-01T16:41:22;8.93;48.95
71175;DHT22;58876;51.994;4.472;2023-03-01T16:43:48;8.94;48.57
71175;DHT22;58876;51.994;4.472;2023-03-01T16:46:20;8.93;49.39
71175;DHT22;58876;51.994;4.472;2023-03-01T16:48:47;8.96;49.40
71175;DHT22;58876;51.994;4.472;2023-03-01T16:51:13;9.02;49.64
71175;DHT22;58876;51.994;4.472;2023-03-01T16:53:38;8.76;49.96
71175;DHT22;58876;51.994;4.472;2023-03-01T16:56:06;8.48;50.47
71175;DHT22;58876;51.994;4.472;2023-03-01T16:58:33;8.42;50.65
71175;DHT22;58876;51.994;4.472;2023-03-01T17:01:17;8.35;50.60
71175;DHT22;58876;51.994;4.472;2023-03-01T17:03:43;8.23;51.38
71175;DHT22;58876;51.994;4.472;2023-03-01T17:06:12;7.98;51.51
71175;DHT22;58876;51.994;4.472;2023-03-01T17:08:38;7.91;52.16
71175;DHT22;58876;51.994;4.472;2023-03-01T17:11:05;7.91;52.28
71175;DHT22;58876;51.994;4.472;2023-03-01T17:13:30;7.69;52.48
71175;DHT22;58876;51.994;4.472;2023-03-01T17:15:56;7.59;52.75
71175;DHT22;58876;51.994;4.472;2023-03-01T17:18:21;7.62;52.45
71175;DHT22;58876;51.994;4.472;2023-03-01T17:20:46;7.58;52.43
71175;DHT22;58876;51.994;4.472;2023-03-01T17:23:12;7.53;53.03
71175;DHT22;58876;51.994;4.472;2023-03-01T17:25:42;7.48;52.91
71175;DHT22;58876;51.994;4.472;2023-03-01T17:28:09;7.42;53.04
71175;DHT22;58876;51.994;4.472;2023-03-01T17:30:34;7.25;53.56